Airfield :
LOGIN :

Register | Disclaimer

   EN    FR    IT 

 










Legend :    VFR   Marginal VFR   IFR   Intensive IFR   Very Intensive IFR
Visi :
Ceiling :
>= 8 km
>= 3000ft
5 to 8 km
1000 to 3000 ft
1500m to 5 km
500 to 1000 ft
800 to 1500m
200 to 500 ft
< 800m
< 200 ft
Symbols :   Thunderstorms  Fog  Heavy snow  Heavy precipitations  Wind > 20 kt
SIGMETs :     Misc.  Thunderstorms  Icing  Turbulence  Mountain Waves  Volcanic Ashes







- Airport Elevation : 1516 ft
- IATA code : AGB


EDMA - Augsburg

CURRENT METAR :
  • 270620Z 09004KT 040V210 CAVOK 10/02 Q1015

EXPIRED METARs :
  • 270550Z VRB01KT CAVOK 06/03 Q1016
  • 270520Z VRB01KT CAVOK 03/01 Q1016
  • 270450Z AUTO 00000KT 9999 // BKN150/// 02/01 Q1016
  • 270420Z AUTO 00000KT 9999 // BKN150/// 02/01 Q1016
  • 270350Z AUTO 00000KT 9999 // BKN170/// 02/01 Q1016

TAF TAF EDMA
Valid from the 27 at 06:00 until the 27 at 15:00 UTC


270532Z 2706/2715 09005KT CAVOK
BECMG 2707/2709 12010KT
No reported NOTAMs for that airfield.



MET'MAP, your aeronautical weather chart ! - Copyright ORBIFLY December 2007 - Disclaimer

ORBIFLY MET'MAP TEAM :

Programming & Development : Alexandra Zaïnal
Concept & Development : Baudouin d'Aumeries
Co-Development & Prog : Marc-Olivier Méhu
Technical & hardware support : Manuel Goepfert

Contact : metmap@orbifly.com




SOURCES & CREDITS :

   NOAA